Main page
METAR-TAF:

METAR-TAF

Airports :

Nîmes–Alès–Camargue–Cévennes Airport

Nîmes, France

latitude: 43-45N, longitude: 004-25E, elevation: 94 m

Current weather observation

The report was made 26 minutes ago, at 01:30 UTC
Wind 6 kt from the Northeast
Temperature 3°C
Humidity 87%
Pressure 1011 hPa
Visibility: 7000 m

METAR: LFTW 190130Z AUTO 04006KT 7000 NSC 03/01 Q1011

Time: 02:56 (01:56 UTC)

Forecast

The report was made 11 hours and 56 minutes ago, at 14:00 UTC
Forecast valid from 18 at 15 UTC to 19 at 15 UTC
Wind 10 kt from the North/Northeast
Visibility 10 km or more
no clouds below 1500 m and no cumulonimbus
Probability 30% :
Temporary
from 18 at 23 UTC to 19 at 05 UTC
Visibility: 4000 m
Overcast at a height of 500 ft
mist

TAF: LFTW 181400Z 1815/1915 03010KT CAVOK PROB30 TEMPO 1823/1905 4000 BR OVC005

Weather observations and forecasts of more than 4000 airports (METAR and TAF reports).

The available stations are represented by yellow and red dots on the map.

Hover mouse over dot to see the name of the station.

Then click to see weather observations and forecasts.

To change the map : click on the green buttons with a black cross to zoom in, on the green button with a dash to zoom out, or on the green arrows for adjacent maps.


METAR-TAF: